Terminal Aerodrome Forecast
Issued by NWS Wilmington, OH

Current Version | Previous Version | Graphics & Text | Print | Product List | Glossary On
Versions: 1 2 3 4 5 6 7 8 9 10 11 12 13 14 15 16 17 18
000
FTUS41 KILN 212121 AAA
TAFDAY
TAF AMD
KDAY 212121Z 2121/2218 VRB05KT P6SM VCTS SCT050CB
      TEMPO 2121/2122 2SM -TSRA BR SCT020 BKN045CB
     FM220000 VRB03KT P6SM FEW250
      TEMPO 2209/2213 5SM BR
     FM221400 VRB03KT P6SM FEW035=

USA.gov is the U.S. government's official web portal to all federal, state and local government web resources and services.